createdAt,value
2022-12-23T00:02:02.629Z,36.72
2022-12-23T00:04:30.807Z,40.70
2022-12-23T00:07:02.127Z,39.47
2022-12-23T00:09:33.007Z,28.33
2022-12-23T00:12:18.659Z,34.13
2022-12-23T00:15:03.895Z,40.33
2022-12-23T00:17:32.834Z,44.92
2022-12-23T00:20:00.974Z,51.67
2022-12-23T00:22:47.808Z,52.35
2022-12-23T00:25:16.104Z,35.83
2022-12-23T00:28:01.369Z,44.55
2022-12-23T00:30:30.081Z,54.17
2022-12-23T00:33:01.289Z,46.08
2022-12-23T00:35:33.257Z,41.35
2022-12-23T00:38:03.587Z,43.78
2022-12-23T00:40:48.873Z,38.40
2022-12-23T00:43:17.272Z,29.88
2022-12-23T00:45:45.405Z,37.75
2022-12-23T00:48:39.811Z,35.88
2022-12-23T00:51:09.616Z,33.05
2022-12-23T00:53:42.014Z,37.47
2022-12-23T00:56:09.991Z,46.42
2022-12-23T00:58:38.388Z,38.17
2022-12-23T01:01:24.071Z,44.80
2022-12-23T01:04:10.368Z,44.00
2022-12-23T01:06:38.461Z,48.90
2022-12-23T01:09:11.075Z,46.05
2022-12-23T01:11:41.372Z,46.53
2022-12-23T01:14:10.348Z,46.50
2022-12-23T01:16:39.284Z,43.22
2022-12-23T01:19:07.559Z,42.70
2022-12-23T01:21:35.921Z,43.67
2022-12-23T01:24:04.480Z,53.63
2022-12-23T01:26:34.450Z,40.60
2022-12-23T01:29:03.589Z,32.22
2022-12-23T01:31:39.578Z,22.15
2022-12-23T01:34:09.177Z,21.45
2022-12-23T01:36:37.690Z,20.65
2022-12-23T01:39:06.289Z,18.60
2022-12-23T01:41:53.771Z,20.65
2022-12-23T01:44:49.881Z,20.27
2022-12-23T01:47:22.062Z,15.10
2022-12-23T01:49:53.202Z,18.17
2022-12-23T01:52:22.555Z,17.15
2022-12-23T01:54:53.251Z,16.05
2022-12-23T01:57:23.224Z,17.17
2022-12-23T02:00:09.393Z,13.48
2022-12-23T02:02:57.296Z,11.77
2022-12-23T02:05:25.818Z,13.05
2022-12-23T02:08:12.665Z,12.68
2022-12-23T02:11:18.757Z,16.05
2022-12-23T02:14:12.754Z,13.68
2022-12-23T02:16:49.677Z,12.60
2022-12-23T02:19:27.933Z,13.07
2022-12-23T02:22:13.490Z,13.00
2022-12-23T02:25:06.895Z,14.02
2022-12-23T02:27:50.301Z,12.80
2022-12-23T02:30:42.520Z,14.02
2022-12-23T02:33:41.201Z,14.48
2022-12-23T02:36:23.410Z,17.00
2022-12-23T02:39:01.518Z,17.50
2022-12-23T02:41:35.646Z,15.93
2022-12-23T02:44:10.492Z,17.83
2022-12-23T02:46:46.554Z,17.40
2022-12-23T02:49:22.364Z,17.42
2022-12-23T02:51:57.285Z,14.48
2022-12-23T02:54:32.432Z,17.83
2022-12-23T02:57:05.223Z,16.45
2022-12-23T02:59:38.754Z,17.52
2022-12-23T03:02:09.163Z,17.52
2022-12-23T03:04:42.177Z,17.55
2022-12-23T03:07:19.362Z,16.60
2022-12-23T03:09:59.794Z,17.30
2022-12-23T03:12:39.562Z,16.42
2022-12-23T03:15:25.611Z,17.65
2022-12-23T03:18:04.092Z,18.88
2022-12-23T03:20:40.141Z,16.98
2022-12-23T03:23:20.127Z,18.80
2022-12-23T03:25:58.586Z,17.13
2022-12-23T03:28:34.960Z,17.42
2022-12-23T03:31:04.817Z,17.30
2022-12-23T03:33:37.419Z,18.67
2022-12-23T03:36:11.755Z,21.13
2022-12-23T03:38:42.575Z,19.33
2022-12-23T03:41:13.859Z,21.33
2022-12-23T03:43:50.698Z,19.88
2022-12-23T03:46:22.534Z,18.92
2022-12-23T03:48:55.608Z,20.38
2022-12-23T03:51:27.792Z,21.02
2022-12-23T03:54:00.377Z,22.33
2022-12-23T03:56:35.170Z,23.25
2022-12-23T03:59:08.585Z,23.35
2022-12-23T04:01:43.913Z,25.70
2022-12-23T04:04:19.369Z,24.05
2022-12-23T04:06:57.842Z,24.58
2022-12-23T04:09:29.319Z,28.10
2022-12-23T04:11:58.801Z,21.65
2022-12-23T04:14:27.000Z,24.35
2022-12-23T04:16:58.411Z,28.23
2022-12-23T04:19:28.508Z,27.35
2022-12-23T04:22:00.881Z,29.45
2022-12-23T04:24:28.983Z,30.88
2022-12-23T04:26:56.904Z,24.98
2022-12-23T04:29:24.883Z,22.88
2022-12-23T04:31:53.052Z,25.15
2022-12-23T04:34:21.103Z,23.88
2022-12-23T04:36:50.587Z,23.20
2022-12-23T04:39:20.947Z,21.13
2022-12-23T04:41:49.206Z,20.42
2022-12-23T04:44:20.090Z,20.77
2022-12-23T04:46:48.346Z,22.15
2022-12-23T04:49:16.408Z,22.85
2022-12-23T04:51:44.641Z,19.58
2022-12-23T04:54:14.089Z,19.88
2022-12-23T04:56:42.239Z,17.85
2022-12-23T04:59:13.066Z,21.13
2022-12-23T05:01:42.367Z,20.33
2022-12-23T05:04:11.097Z,21.67
2022-12-23T05:06:39.283Z,17.08
2022-12-23T05:09:11.006Z,20.30
2022-12-23T05:11:42.595Z,24.45
2022-12-23T05:14:10.815Z,24.00
2022-12-23T05:16:39.172Z,21.55
2022-12-23T05:19:07.586Z,20.35
2022-12-23T05:21:41.303Z,20.40
2022-12-23T05:24:12.363Z,18.10
2022-12-23T05:26:44.946Z,16.70
2022-12-23T05:29:16.098Z,20.67
2022-12-23T05:31:44.427Z,20.33
2022-12-23T05:34:13.529Z,14.45
2022-12-23T05:36:41.809Z,13.88
2022-12-23T05:39:10.717Z,18.38
2022-12-23T05:41:38.821Z,19.23
2022-12-23T05:44:11.159Z,14.43
2022-12-23T05:46:39.398Z,14.05
2022-12-23T05:49:07.709Z,15.30
2022-12-23T05:51:36.068Z,17.65
2022-12-23T05:54:07.470Z,18.88
2022-12-23T05:56:35.979Z,20.83
2022-12-23T05:59:06.962Z,22.50
2022-12-23T06:01:36.871Z,22.73
2022-12-23T06:04:05.662Z,19.65
2022-12-23T06:06:36.390Z,20.42
2022-12-23T06:09:04.469Z,17.33
2022-12-23T06:11:32.525Z,26.58
2022-12-23T06:14:00.595Z,35.83
2022-12-23T06:16:28.695Z,23.25
2022-12-23T06:18:58.381Z,18.35
2022-12-23T06:21:27.086Z,23.95
2022-12-23T06:23:55.572Z,18.25
2022-12-23T06:26:26.614Z,19.10
2022-12-23T06:28:54.841Z,18.92
2022-12-23T06:31:23.119Z,19.40
2022-12-23T06:33:51.174Z,22.83
2022-12-23T06:36:22.038Z,19.58
2022-12-23T06:38:50.139Z,17.90
2022-12-23T06:41:18.597Z,20.90
2022-12-23T06:43:49.948Z,23.75
2022-12-23T06:46:22.311Z,20.48
2022-12-23T06:48:50.417Z,21.58
2022-12-23T06:51:18.647Z,24.98
2022-12-23T06:53:48.273Z,21.67
2022-12-23T06:56:16.751Z,24.45
2022-12-23T06:58:45.217Z,20.40
2022-12-23T07:01:13.525Z,26.23
2022-12-23T07:03:45.054Z,19.13
2022-12-23T07:06:13.298Z,24.60
2022-12-23T07:08:41.573Z,21.65
2022-12-23T07:11:11.227Z,20.50
2022-12-23T07:13:39.340Z,25.67
2022-12-23T07:16:09.565Z,28.30
2022-12-23T07:18:38.000Z,23.10
2022-12-23T07:21:13.397Z,27.95
2022-12-23T07:23:46.197Z,30.17
2022-12-23T07:26:15.797Z,27.90
2022-12-23T07:28:46.809Z,30.52
2022-12-23T07:31:15.112Z,27.67
2022-12-23T07:33:43.535Z,30.15
2022-12-23T07:36:12.427Z,34.83
2022-12-23T07:38:43.337Z,31.27
2022-12-23T07:41:11.605Z,28.15
2022-12-23T07:43:41.463Z,28.35
2022-12-23T07:46:13.332Z,35.22
2022-12-23T07:48:42.333Z,32.88
2022-12-23T07:51:13.054Z,39.35
2022-12-23T07:53:41.230Z,34.92
2022-12-23T07:56:10.301Z,25.08
2022-12-23T07:58:38.604Z,27.05
2022-12-23T08:01:11.855Z,24.70
2022-12-23T08:03:40.213Z,25.38
2022-12-23T08:06:12.496Z,22.55
2022-12-23T08:08:42.422Z,25.45
2022-12-23T08:11:15.301Z,32.28
2022-12-23T08:13:45.314Z,25.08
2022-12-23T08:16:16.004Z,24.80
2022-12-23T08:18:44.272Z,26.17
2022-12-23T08:21:15.994Z,32.30
2022-12-23T08:23:44.959Z,31.40
2022-12-23T08:26:17.593Z,21.63
2022-12-23T08:28:46.817Z,19.33
2022-12-23T08:31:19.548Z,32.50
2022-12-23T08:33:49.108Z,28.08
2022-12-23T08:36:22.827Z,26.65
2022-12-23T08:38:52.545Z,21.27
2022-12-23T08:41:25.784Z,18.48
2022-12-23T08:43:54.410Z,19.13
2022-12-23T08:46:25.183Z,19.55
2022-12-23T08:48:54.544Z,17.40
2022-12-23T08:51:24.080Z,13.48
2022-12-23T08:53:59.646Z,16.40
2022-12-23T08:56:31.728Z,16.52
2022-12-23T08:59:00.612Z,17.38
2022-12-23T09:01:32.053Z,14.23
2022-12-23T09:04:03.024Z,14.40
2022-12-23T09:06:36.178Z,15.23
2022-12-23T09:09:04.753Z,21.55
2022-12-23T09:11:32.972Z,16.10
2022-12-23T09:14:02.211Z,18.02
2022-12-23T09:16:32.433Z,14.48
2022-12-23T09:19:00.756Z,19.73
2022-12-23T09:21:28.947Z,16.30
2022-12-23T09:23:56.864Z,16.25
2022-12-23T09:26:26.283Z,21.88
2022-12-23T09:28:54.908Z,22.10
2022-12-23T09:31:24.758Z,22.17
2022-12-23T09:33:55.611Z,29.67
2022-12-23T09:36:24.152Z,24.83
2022-12-23T09:38:58.833Z,33.10
2022-12-23T09:41:36.600Z,27.25
2022-12-23T09:44:32.282Z,33.83
2022-12-23T09:47:03.508Z,36.33
2022-12-23T09:49:34.452Z,37.95
2022-12-23T09:52:04.788Z,37.10
2022-12-23T09:54:39.136Z,36.40
2022-12-23T09:57:18.033Z,46.10
2022-12-23T10:00:02.088Z,37.28
2022-12-23T10:02:42.236Z,41.08
2022-12-23T10:05:24.761Z,44.53
2022-12-23T10:07:56.783Z,40.03
2022-12-23T10:10:33.049Z,41.35
2022-12-23T10:13:03.883Z,46.30
2022-12-23T10:15:39.586Z,43.35
2022-12-23T10:18:18.954Z,52.08
2022-12-23T10:20:53.748Z,45.90
2022-12-23T10:23:29.627Z,49.03
2022-12-23T10:26:01.684Z,46.88
2022-12-23T10:28:32.583Z,53.38
2022-12-23T10:34:01.858Z,58.80
2022-12-23T10:36:41.465Z,46.13
2022-12-23T10:39:21.531Z,52.72
2022-12-23T10:42:02.372Z,46.75
2022-12-23T10:45:07.591Z,43.38
2022-12-23T10:47:46.978Z,44.47
2022-12-23T10:50:46.120Z,46.35
2022-12-23T10:53:28.744Z,76.65
2022-12-23T10:55:58.352Z,43.78
2022-12-23T10:58:27.699Z,41.67
2022-12-23T11:00:58.139Z,30.55
2022-12-23T11:03:30.250Z,38.72
2022-12-23T11:05:59.504Z,31.83
2022-12-23T11:08:31.591Z,31.75
2022-12-23T11:11:01.398Z,32.53
2022-12-23T11:13:37.057Z,32.30
2022-12-23T11:16:29.834Z,29.80
2022-12-23T11:19:01.054Z,28.40
2022-12-23T11:21:32.282Z,30.85
2022-12-23T11:24:11.420Z,34.47
2022-12-23T11:26:39.680Z,31.00
2022-12-23T11:29:12.602Z,34.13
2022-12-23T11:31:44.107Z,33.15
2022-12-23T11:34:16.757Z,34.25
2022-12-23T11:36:50.122Z,34.50
2022-12-23T11:39:26.560Z,35.92
2022-12-23T11:41:59.958Z,33.72
2022-12-23T11:44:31.025Z,37.13
2022-12-23T11:47:18.312Z,33.60
2022-12-23T11:49:50.773Z,31.60
2022-12-23T11:52:23.344Z,31.05
2022-12-23T11:54:58.048Z,34.90
2022-12-23T11:57:38.951Z,32.28
2022-12-23T12:00:09.765Z,33.47
2022-12-23T12:02:42.374Z,34.08
2022-12-23T12:05:22.649Z,32.55
2022-12-23T12:07:51.964Z,50.13
2022-12-23T12:10:28.681Z,37.28
2022-12-23T12:12:59.463Z,36.08
2022-12-23T12:15:37.165Z,37.33
2022-12-23T12:18:10.859Z,40.30
2022-12-23T12:20:42.780Z,41.80
2022-12-23T12:23:15.353Z,79.10
2022-12-23T12:25:49.765Z,38.95
2022-12-23T12:28:22.124Z,34.00
2022-12-23T12:30:54.239Z,42.38
2022-12-23T12:33:29.715Z,35.40
2022-12-23T12:36:08.244Z,36.88
2022-12-23T12:38:40.079Z,36.30
2022-12-23T12:41:17.432Z,35.72
2022-12-23T12:43:52.046Z,31.25
2022-12-23T12:46:31.140Z,35.92
2022-12-23T12:49:06.500Z,34.72
2022-12-23T12:51:41.557Z,34.78
2022-12-23T12:54:16.613Z,40.70
2022-12-23T12:56:51.800Z,33.03
2022-12-23T12:59:23.387Z,35.42
2022-12-23T13:02:13.637Z,27.42
2022-12-23T13:05:09.226Z,32.85
2022-12-23T13:07:47.646Z,31.88
2022-12-23T13:10:23.053Z,39.85
2022-12-23T13:13:00.581Z,27.05
2022-12-23T13:15:34.192Z,25.65
2022-12-23T13:18:17.685Z,24.33
2022-12-23T13:20:53.845Z,27.75
2022-12-23T13:23:45.682Z,25.95
2022-12-23T13:26:24.827Z,26.30
2022-12-23T13:29:04.407Z,28.02
2022-12-23T13:31:43.481Z,23.70
2022-12-23T13:34:25.268Z,21.60
2022-12-23T13:36:59.277Z,25.70
2022-12-23T13:39:46.975Z,21.58
2022-12-23T13:42:23.178Z,22.55
2022-12-23T13:44:55.479Z,24.92
2022-12-23T13:47:30.286Z,21.05
2022-12-23T13:50:07.665Z,26.73
2022-12-23T13:52:50.507Z,23.85
2022-12-23T13:55:32.705Z,21.10
2022-12-23T13:58:08.054Z,24.27
2022-12-23T14:00:37.821Z,22.52
2022-12-23T14:03:18.821Z,21.00
2022-12-23T14:05:50.444Z,22.90
2022-12-23T14:08:34.316Z,22.30
2022-12-23T14:11:11.434Z,21.15
2022-12-23T14:13:46.127Z,23.77
2022-12-23T14:16:39.441Z,22.05
2022-12-23T14:19:34.700Z,20.83
2022-12-23T14:22:23.156Z,21.10
2022-12-23T14:25:11.994Z,20.17
2022-12-23T14:27:58.479Z,21.42
2022-12-23T14:30:35.564Z,28.38
2022-12-23T14:33:15.946Z,21.75
2022-12-23T14:35:57.313Z,20.02
2022-12-23T14:38:28.157Z,23.83
2022-12-23T14:41:23.982Z,21.90
2022-12-23T14:44:02.738Z,20.17
2022-12-23T14:46:59.264Z,19.40
2022-12-23T14:49:49.643Z,19.05
2022-12-23T14:52:47.888Z,17.90
2022-12-23T14:55:47.021Z,19.02
2022-12-23T14:58:44.679Z,17.88
2022-12-23T15:01:16.604Z,17.55
2022-12-23T15:03:54.610Z,18.48
2022-12-23T15:06:36.527Z,17.35
2022-12-23T15:09:07.568Z,18.73
2022-12-23T15:11:37.513Z,18.10
2022-12-23T15:14:11.344Z,19.92
2022-12-23T15:16:45.229Z,22.52
2022-12-23T15:19:23.877Z,20.42
2022-12-23T15:22:15.331Z,20.35
2022-12-23T15:24:49.225Z,19.67
2022-12-23T15:27:28.844Z,19.70
2022-12-23T15:30:00.828Z,19.70
2022-12-23T15:32:30.119Z,20.55
2022-12-23T15:35:06.302Z,21.90
2022-12-23T15:37:36.144Z,20.13
2022-12-23T15:40:12.515Z,22.25
2022-12-23T15:42:48.580Z,23.38
2022-12-23T15:45:32.996Z,21.58
2022-12-23T15:48:12.546Z,24.13
2022-12-23T15:50:42.487Z,20.73
2022-12-23T15:53:16.205Z,24.40
2022-12-23T15:55:44.833Z,37.75
2022-12-23T15:58:19.590Z,29.67
2022-12-23T16:00:56.113Z,21.83
2022-12-23T16:03:29.000Z,18.75
2022-12-23T16:06:11.430Z,18.77
2022-12-23T16:08:41.204Z,17.98
2022-12-23T16:11:21.074Z,19.70
2022-12-23T16:14:22.535Z,17.08
2022-12-23T16:16:52.485Z,18.23
2022-12-23T16:19:40.457Z,18.15
2022-12-23T16:22:14.096Z,17.50
2022-12-23T16:24:49.750Z,17.58
2022-12-23T16:27:33.276Z,15.02
2022-12-23T16:30:26.400Z,13.45
2022-12-23T16:33:06.410Z,13.32
2022-12-23T16:35:39.699Z,13.90
2022-12-23T16:38:17.573Z,11.82
2022-12-23T16:41:24.407Z,12.10
2022-12-23T16:43:56.337Z,16.48
2022-12-23T16:46:24.800Z,14.65
2022-12-23T16:48:55.450Z,12.32
2022-12-23T16:51:27.228Z,11.73
2022-12-23T16:53:58.745Z,14.98
2022-12-23T16:56:37.296Z,17.83
2022-12-23T16:59:07.490Z,12.23
2022-12-23T17:01:39.414Z,17.15
2022-12-23T17:04:08.209Z,19.48
2022-12-23T17:06:37.210Z,18.23
2022-12-23T17:09:08.055Z,18.63
2022-12-23T17:11:41.490Z,16.35
2022-12-23T17:14:16.838Z,21.95
2022-12-23T17:16:46.110Z,21.67
2022-12-23T17:19:15.774Z,21.23
2022-12-23T17:21:46.162Z,28.23
2022-12-23T17:24:23.226Z,28.58
2022-12-23T17:26:53.907Z,29.15
2022-12-23T17:29:22.427Z,29.27
2022-12-23T17:31:53.614Z,30.75
2022-12-23T17:34:24.500Z,32.10
2022-12-23T17:36:53.324Z,33.65
2022-12-23T17:39:22.753Z,30.38
2022-12-23T17:41:53.112Z,37.53
2022-12-23T17:44:21.437Z,37.38
2022-12-23T17:46:49.694Z,32.03
2022-12-23T17:49:17.852Z,39.97
2022-12-23T17:51:57.622Z,47.15
2022-12-23T17:54:29.030Z,42.63
2022-12-23T17:56:59.116Z,40.00
2022-12-23T17:59:27.357Z,37.20
2022-12-23T18:01:57.964Z,41.20
2022-12-23T18:04:26.299Z,40.40
2022-12-23T18:06:54.528Z,40.30
2022-12-23T18:09:23.321Z,35.53
2022-12-23T18:11:51.667Z,41.72
2022-12-23T18:14:28.095Z,45.00
2022-12-23T18:16:59.361Z,31.48
2022-12-23T18:19:27.667Z,43.75
2022-12-23T18:21:55.831Z,49.50
2022-12-23T18:24:24.083Z,40.78
2022-12-23T18:26:52.340Z,34.78
2022-12-23T18:29:22.317Z,38.63
2022-12-23T18:31:52.345Z,43.17
2022-12-23T18:34:21.483Z,37.88
2022-12-23T18:36:51.980Z,31.33
2022-12-23T18:39:20.409Z,38.08
2022-12-23T18:41:48.663Z,45.63
2022-12-23T18:44:21.851Z,45.25
2022-12-23T18:46:51.642Z,44.85
2022-12-23T18:49:20.086Z,35.60
2022-12-23T18:51:51.782Z,44.95
2022-12-23T18:54:19.895Z,35.38
2022-12-23T18:56:50.908Z,45.97
2022-12-23T18:59:27.336Z,33.35
2022-12-23T19:02:04.132Z,40.08
2022-12-23T19:04:33.205Z,44.22
2022-12-23T19:07:01.731Z,42.80
2022-12-23T19:09:31.742Z,41.35
2022-12-23T19:12:00.036Z,37.35
2022-12-23T19:14:28.323Z,48.15
2022-12-23T19:17:00.224Z,32.95
2022-12-23T19:19:32.955Z,44.50
2022-12-23T19:22:01.144Z,37.28
2022-12-23T19:24:29.622Z,42.35
2022-12-23T19:26:58.111Z,40.97
2022-12-23T19:29:29.453Z,34.00
2022-12-23T19:32:00.402Z,31.25
2022-12-23T19:34:28.460Z,31.00
2022-12-23T19:36:58.028Z,29.77
2022-12-23T19:39:27.102Z,27.08
2022-12-23T19:41:58.067Z,28.60
2022-12-23T19:44:26.272Z,22.50
2022-12-23T19:47:00.404Z,26.33
2022-12-23T19:49:28.748Z,28.77
2022-12-23T19:52:01.151Z,31.38
2022-12-23T19:54:29.694Z,26.55
2022-12-23T19:57:00.741Z,29.88
2022-12-23T19:59:29.242Z,25.73
2022-12-23T20:01:59.553Z,31.50
2022-12-23T20:04:29.042Z,27.88
2022-12-23T20:07:01.401Z,27.88
2022-12-23T20:09:29.728Z,42.83
2022-12-23T20:12:01.768Z,31.17
2022-12-23T20:14:33.869Z,23.65
2022-12-23T20:17:02.849Z,26.55
2022-12-23T20:19:30.938Z,26.40
2022-12-23T20:22:00.674Z,32.35
2022-12-23T20:24:29.291Z,27.95
2022-12-23T20:26:59.473Z,28.35
2022-12-23T20:29:30.547Z,25.55
2022-12-23T20:31:58.743Z,28.63
2022-12-23T20:34:27.187Z,33.22
2022-12-23T20:36:55.683Z,27.80
2022-12-23T20:39:25.961Z,28.27
2022-12-23T20:41:54.217Z,28.77
2022-12-23T20:44:34.662Z,24.92
2022-12-23T20:47:03.935Z,31.70
2022-12-23T20:54:33.142Z,27.48
2022-12-23T21:09:12.162Z,27.88
2022-12-23T21:12:12.769Z,30.27
2022-12-23T21:13:54.679Z,23.75
2022-12-23T21:15:16.265Z,25.48
2022-12-23T21:17:51.499Z,21.60
2022-12-23T21:20:33.740Z,21.48
2022-12-23T21:24:11.541Z,24.48
2022-12-23T21:28:02.837Z,27.33
2022-12-23T21:33:30.172Z,25.25
2022-12-23T21:36:02.891Z,26.42
2022-12-23T21:38:40.102Z,22.65
2022-12-23T21:41:33.819Z,26.73
2022-12-23T21:47:06.606Z,30.15
2022-12-23T21:49:46.329Z,23.20
2022-12-23T21:52:26.164Z,28.65
2022-12-23T21:54:57.083Z,28.63
2022-12-23T21:57:25.888Z,30.60
2022-12-23T21:59:55.850Z,34.95
2022-12-23T22:02:29.144Z,32.55
2022-12-23T22:04:58.797Z,30.63
2022-12-23T22:07:32.803Z,33.13
2022-12-23T22:10:01.551Z,35.90
2022-12-23T22:12:33.530Z,32.85
2022-12-23T22:15:05.016Z,33.90
2022-12-23T22:17:39.692Z,38.22
2022-12-23T22:20:28.114Z,38.40
2022-12-23T22:23:00.891Z,43.05
2022-12-23T22:25:31.932Z,30.67
2022-12-23T22:28:00.438Z,31.23
2022-12-23T22:30:34.364Z,32.20
2022-12-23T22:33:21.272Z,33.00
2022-12-23T22:36:02.215Z,33.00
2022-12-23T22:38:36.112Z,44.58
2022-12-23T22:41:06.194Z,37.15
2022-12-23T22:43:34.704Z,37.95
2022-12-23T22:46:03.557Z,37.65
2022-12-23T22:51:35.974Z,32.85
2022-12-23T22:54:16.624Z,47.03
2022-12-23T22:57:08.682Z,36.40
2022-12-23T23:00:00.749Z,45.42
2022-12-23T23:05:30.048Z,37.50
2022-12-23T23:08:01.412Z,38.28
2022-12-23T23:10:29.827Z,37.55
2022-12-23T23:12:58.313Z,48.13
2022-12-23T23:15:26.782Z,41.75
2022-12-23T23:17:59.628Z,33.63
2022-12-23T23:20:29.454Z,44.28
2022-12-23T23:22:58.002Z,41.72
2022-12-23T23:25:26.484Z,37.13
2022-12-23T23:27:54.819Z,37.03
2022-12-23T23:30:22.980Z,39.03
2022-12-23T23:32:51.281Z,42.53
2022-12-23T23:35:19.437Z,39.63
2022-12-23T23:37:49.317Z,43.83
2022-12-23T23:40:17.877Z,45.72
2022-12-23T23:42:49.218Z,43.40
2022-12-23T23:45:17.885Z,44.28
2022-12-23T23:47:46.829Z,31.80
2022-12-23T23:50:16.666Z,39.63
2022-12-23T23:52:45.377Z,37.58
